Airfield :
LOGIN :

Register | Disclaimer

   EN    FR    IT 

 










Legend :    VFR   Marginal VFR   IFR   Intensive IFR   Very Intensive IFR
Visi :
Ceiling :
>= 8 km
>= 3000ft
5 to 8 km
1000 to 3000 ft
1500m to 5 km
500 to 1000 ft
800 to 1500m
200 to 500 ft
< 800m
< 200 ft
Symbols :   Thunderstorms  Fog  Heavy snow  Heavy precipitations  Wind > 20 kt
SIGMETs :     Misc.  Thunderstorms  Icing  Turbulence  Mountain Waves  Volcanic Ashes






- Airport Elevation : 53 ft
- IATA code : AGP


LEMG - Malaga

CURRENT METAR :
  • 301930Z 10007KT 9999 FEW020 BKN075 15/13 Q1008 NOSIG

EXPIRED METARs :
  • 301900Z 11007KT 080V140 9999 FEW020 BKN075 15/12 Q1008 NOSIG
  • 301830Z 09007KT 9999 FEW020 BKN085 15/12 Q1008 NOSIG
  • 301800Z 10007KT 9999 FEW020 15/13 Q1008 NOSIG
  • 301730Z 10007KT 070V140 9999 FEW030 16/13 Q1008 NOSIG
  • 301700Z 09007KT 050V110 9999 FEW020 16/13 Q1008 NOSIG

TAF TAF LEMG
Valid from the 30 at 18:00 until the 31 at 18:00 UTC


301700Z 3018/3118 13009KT 9999 SCT025 SCT040 TX18/3114Z TN12/3106Z
TEMPO 3019/3101 VRB03KT
TEMPO 3022/3118 4000 SHRA SCT025TCU BKN040
PROB40
TEMPO 3101/3118 3000 +TSRA SCT020CB BKN025



MET'MAP, your aeronautical weather chart ! - Copyright ORBIFLY December 2007 - Disclaimer

ORBIFLY MET'MAP TEAM :

Programming & Development : Alexandra Zaïnal
Concept & original design : Baudouin d'Aumeries
Assistance for programming : Marc-Olivier Méhu
Technical & hardware support : Manuel Goepfert

Contact : metmap@orbifly.com




SOURCES & CREDITS :

   NOAA